Time;durP1;ratioP1;P1;durP2;ratioP2;P2;SDS_P1;SDS_P2;PMS_P1;PMS_P2;Temp;Humidity;BMP_temperature;BMP_pressure;BME280_temperature;BME280_humidity;BME280_pressure;Samples;Min_cycle;Max_cycle;Signal;HPM_P1;HPM_P2
2022/02/05 00:00:31;;;;;;;;;;;18.70;99.90;;;;;;5072586;28;19970;-75
2022/02/05 00:05:40;;;;;;;;;;;19.30;99.90;;;;;;5073992;28;19948;-74
2022/02/05 00:09:09;;;;;;;;;;;19.70;99.90;;;;;;5073792;28;19930;-74
2022/02/05 00:11:21;;;;;;;;;;;20.00;99.90;;;;;;5062873;28;20336;-74
2022/02/05 00:43:18;;;;;;;;;;;20.70;99.90;;;;;;5072706;28;19924;-74
2022/02/05 00:45:49;;;;;;;;;;;20.90;99.90;;;;;;5073261;28;19908;-75
2022/02/05 00:48:17;;;;;;;;;;;21.40;99.90;;;;;;5073343;28;19915;-74
2022/02/05 00:50:50;;;;;;;;;;;21.60;99.90;;;;;;5073197;28;19909;-75
2022/02/05 00:53:37;;;;;;;;;;;21.60;99.90;;;;;;5073138;28;20278;-74
2022/02/05 00:58:56;;;;;;;;;;;21.10;99.90;;;;;;5064249;28;19920;-74
2022/02/05 01:01:23;;;;;;;;;;;21.00;99.90;;;;;;5072763;28;19913;-75
2022/02/05 01:03:50;;;;;;;;;;;21.10;99.90;;;;;;5072532;28;19917;-75
2022/02/05 01:06:16;;;;;;;;;;;21.20;99.90;;;;;;5073100;28;19909;-74
2022/02/05 01:08:44;;;;;;;;;;;21.40;99.90;;;;;;5072943;28;19912;-74
2022/02/05 01:11:11;;;;;;;;;;;21.80;99.90;;;;;;5072854;28;19909;-74
2022/02/05 01:13:38;;;;;;;;;;;22.10;99.90;;;;;;5073036;28;19919;-73
2022/02/05 01:16:39;;;;;;;;;;;22.40;99.90;;;;;;5072461;28;20330;-74
2022/02/05 01:18:51;;;;;;;;;;;22.60;99.90;;;;;;5072363;28;19909;-73
2022/02/05 01:23:53;;;;;;;;;;;22.90;99.90;;;;;;5072680;28;20575;-74
2022/02/05 01:26:28;;;;;;;;;;;23.40;99.90;;;;;;5072732;28;19908;-75
2022/02/05 01:29:06;;;;;;;;;;;23.70;99.90;;;;;;5072418;28;19934;-75
2022/02/05 01:31:42;;;;;;;;;;;24.10;99.90;;;;;;5072486;28;19916;-74
2022/02/05 02:11:58;;;;;;;;;;;23.50;99.90;;;;;;5075891;28;19990;-74
2022/02/05 02:23:24;;;;;;;;;;;23.60;99.90;;;;;;5066295;28;19919;-72
2022/02/05 02:26:01;;;;;;;;;;;23.60;98.90;;;;;;5075890;28;19909;-74
2022/02/05 02:28:42;;;;;;;;;;;23.50;98.80;;;;;;5075737;28;19909;-74
2022/02/05 02:31:15;;;;;;;;;;;23.40;99.20;;;;;;5075586;28;20332;-73
2022/02/05 02:33:46;;;;;;;;;;;23.60;99.50;;;;;;5075771;28;20340;-73
2022/02/05 02:36:26;;;;;;;;;;;23.60;99.90;;;;;;5075666;28;19948;-73
2022/02/05 02:38:57;;;;;;;;;;;23.60;99.90;;;;;;5075629;28;19912;-74
2022/02/05 02:41:29;;;;;;;;;;;23.40;99.90;;;;;;5075555;28;19909;-74
2022/02/05 02:43:56;;;;;;;;;;;23.50;99.90;;;;;;5075224;28;19924;-74
2022/02/05 02:46:22;;;;;;;;;;;23.40;99.90;;;;;;5075289;28;20003;-74
2022/02/05 02:48:50;;;;;;;;;;;23.40;99.90;;;;;;5075433;28;20415;-74
2022/02/05 02:57:09;;;;;;;;;;;23.60;99.90;;;;;;5075514;28;19916;-74
2022/02/05 03:02:18;;;;;;;;;;;23.50;99.90;;;;;;5075168;28;19954;-74
2022/02/05 03:04:45;;;;;;;;;;;23.50;99.90;;;;;;5074584;28;19916;-74
2022/02/05 03:07:11;;;;;;;;;;;23.60;99.90;;;;;;5074934;28;19915;-74
2022/02/05 03:09:39;;;;;;;;;;;23.60;99.90;;;;;;5075052;28;19909;-75
2022/02/05 03:12:06;;;;;;;;;;;23.60;99.90;;;;;;5074643;28;19936;-75
2022/02/05 03:14:32;;;;;;;;;;;23.50;99.90;;;;;;5074818;28;19916;-75
2022/02/05 03:17:14;;;;;;;;;;;23.40;99.90;;;;;;5075022;28;19912;-75
2022/02/05 03:19:40;;;;;;;;;;;23.40;99.90;;;;;;5075092;28;20411;-75
2022/02/05 03:22:07;;;;;;;;;;;23.60;99.90;;;;;;5074565;28;19915;-74
2022/02/05 03:24:34;;;;;;;;;;;23.60;99.90;;;;;;5074512;28;19916;-74
2022/02/05 03:27:00;;;;;;;;;;;23.60;99.90;;;;;;5074568;28;20007;-74
2022/02/05 03:29:27;;;;;;;;;;;23.50;99.90;;;;;;5074398;28;19908;-74
2022/02/05 03:31:54;;;;;;;;;;;23.70;99.90;;;;;;5074401;28;19908;-74
2022/02/05 03:34:20;;;;;;;;;;;23.70;99.90;;;;;;5074562;28;19908;-74
2022/02/05 03:36:47;;;;;;;;;;;23.80;99.90;;;;;;5074642;28;19912;-74
2022/02/05 03:39:14;;;;;;;;;;;23.80;99.90;;;;;;5074702;28;19912;-75
2022/02/05 03:41:40;;;;;;;;;;;23.50;99.90;;;;;;5074329;28;19961;-75
2022/02/05 03:44:07;;;;;;;;;;;23.50;99.90;;;;;;5074195;28;20015;-75
2022/02/05 03:46:34;;;;;;;;;;;23.40;99.90;;;;;;5074365;28;19909;-75
2022/02/05 03:49:00;;;;;;;;;;;23.40;99.90;;;;;;5074126;28;19916;-75
2022/02/05 03:51:27;;;;;;;;;;;23.50;99.90;;;;;;5074459;28;19909;-74
2022/02/05 03:53:54;;;;;;;;;;;23.50;99.90;;;;;;5074140;28;20336;-74
2022/02/05 03:56:21;;;;;;;;;;;23.50;99.90;;;;;;5072919;28;19908;-74
2022/02/05 03:58:47;;;;;;;;;;;23.50;99.90;;;;;;5074009;28;19919;-74
2022/02/05 04:01:14;;;;;;;;;;;23.50;99.90;;;;;;5074080;28;19920;-74
2022/02/05 04:03:41;;;;;;;;;;;23.40;99.90;;;;;;5074022;28;20407;-74
2022/02/05 04:06:08;;;;;;;;;;;23.50;99.90;;;;;;5073833;28;19909;-72
2022/02/05 04:08:35;;;;;;;;;;;23.50;99.90;;;;;;5074962;28;19931;-74
2022/02/05 04:11:15;;;;;;;;;;;23.60;99.90;;;;;;5107031;28;20320;-73
2022/02/05 04:16:29;;;;;;;;;;;23.60;99.90;;;;;;5074495;28;19915;-73
2022/02/05 04:18:57;;;;;;;;;;;23.50;99.90;;;;;;5073925;28;19912;-73
2022/02/05 04:21:24;;;;;;;;;;;23.40;99.90;;;;;;5074297;28;20359;-73
2022/02/05 04:23:51;;;;;;;;;;;23.30;99.90;;;;;;5073016;28;19916;-74
2022/02/05 04:26:19;;;;;;;;;;;23.10;99.90;;;;;;5089417;28;20259;-73
2022/02/05 04:28:46;;;;;;;;;;;22.90;99.90;;;;;;5073949;28;19916;-74
2022/02/05 04:31:14;;;;;;;;;;;23.10;99.90;;;;;;5074495;28;19981;-74
2022/02/05 04:33:41;;;;;;;;;;;22.90;99.90;;;;;;5106417;28;20003;-73
2022/02/05 04:36:09;;;;;;;;;;;22.70;99.90;;;;;;5073891;28;19908;-75
2022/02/05 04:38:38;;;;;;;;;;;22.60;99.90;;;;;;5073853;28;19915;-74
2022/02/05 04:41:11;;;;;;;;;;;22.60;99.90;;;;;;5105847;28;20283;-77
2022/02/05 04:52:37;;;;;;;;;;;;;;;;;;;;;
2022/02/05 05:02:53;;;;;;;;;;;23.00;99.90;;;;;;5072831;28;19913;-75
2022/02/05 05:05:42;;;;;;;;;;;23.00;99.90;;;;;;5073040;28;19916;-76
2022/02/05 05:08:35;;;;;;;;;;;22.90;99.90;;;;;;5072177;28;21581;-76
2022/02/05 05:21:25;;;;;;;;;;;22.60;99.90;;;;;;5072499;28;19915;-74
2022/02/05 05:23:52;;;;;;;;;;;22.60;99.90;;;;;;5072515;28;19920;-76
2022/02/05 05:26:19;;;;;;;;;;;22.60;99.90;;;;;;5072768;28;20275;-75
2022/02/05 05:28:45;;;;;;;;;;;22.60;99.90;;;;;;5072306;28;19908;-75
2022/02/05 05:31:12;;;;;;;;;;;22.70;99.90;;;;;;5072975;28;19912;-76
2022/02/05 05:33:38;;;;;;;;;;;22.70;99.90;;;;;;5105483;28;20262;-74
2022/02/05 05:36:05;;;;;;;;;;;22.60;99.90;;;;;;5072529;28;20000;-76
2022/02/05 05:38:32;;;;;;;;;;;22.40;99.90;;;;;;5072573;28;20363;-75
2022/02/05 05:40:59;;;;;;;;;;;21.90;99.90;;;;;;5072678;28;19912;-74
2022/02/05 05:43:56;;;;;;;;;;;21.50;99.90;;;;;;5072104;28;20325;-73
2022/02/05 05:51:13;;;;;;;;;;;20.20;99.90;;;;;;5072642;28;19995;-73
2022/02/05 05:53:40;;;;;;;;;;;20.00;99.90;;;;;;5072413;28;19942;-73
2022/02/05 05:56:17;;;;;;;;;;;;;;;;;;;;;
2022/02/05 05:58:44;;;;;;;;;;;20.30;99.90;;;;;;5071740;28;20389;-74
2022/02/05 06:01:10;;;;;;;;;;;20.30;99.90;;;;;;5072575;28;20329;-74
2022/02/05 06:03:38;;;;;;;;;;;20.50;99.90;;;;;;5072292;28;19959;-74
2022/02/05 06:06:05;;;;;;;;;;;20.80;99.90;;;;;;5071901;28;19909;-73
2022/02/05 06:08:31;;;;;;;;;;;21.00;99.90;;;;;;5072035;28;19916;-73
2022/02/05 06:10:58;;;;;;;;;;;21.20;99.90;;;;;;5072294;28;19909;-73
2022/02/05 06:13:25;;;;;;;;;;;21.40;99.90;;;;;;5072133;28;20274;-73
2022/02/05 06:15:54;;;;;;;;;;;21.50;99.90;;;;;;5072097;28;19974;-74
2022/02/05 06:18:20;;;;;;;;;;;21.60;99.90;;;;;;5071908;28;19917;-74
2022/02/05 06:20:47;;;;;;;;;;;21.70;99.90;;;;;;5072091;28;19962;-74
2022/02/05 06:23:14;;;;;;;;;;;21.80;99.90;;;;;;5072110;28;19916;-73
2022/02/05 06:25:41;;;;;;;;;;;21.90;99.90;;;;;;5071914;28;19912;-74
2022/02/05 06:28:14;;;;;;;;;;;21.90;99.90;;;;;;5071630;28;20374;-74
2022/02/05 06:30:41;;;;;;;;;;;22.00;99.90;;;;;;5072107;28;20418;-74
2022/02/05 06:33:08;;;;;;;;;;;22.00;99.90;;;;;;5071966;28;20066;-74
2022/02/05 06:35:34;;;;;;;;;;;22.10;99.90;;;;;;5071894;28;19926;-74
2022/02/05 06:38:01;;;;;;;;;;;22.10;99.90;;;;;;5071373;28;19909;-74
2022/02/05 06:40:28;;;;;;;;;;;22.00;99.90;;;;;;5072601;28;20312;-74
2022/02/05 06:42:54;;;;;;;;;;;22.10;99.90;;;;;;5075509;28;19969;-74
2022/02/05 06:45:21;;;;;;;;;;;22.10;99.90;;;;;;5075685;28;20294;-74
2022/02/05 06:47:48;;;;;;;;;;;22.10;99.90;;;;;;5075446;28;19916;-74
2022/02/05 06:50:14;;;;;;;;;;;22.20;99.90;;;;;;5075682;28;20358;-75
2022/02/05 06:52:42;;;;;;;;;;;22.10;99.90;;;;;;5075470;28;19912;-74
2022/02/05 06:55:08;;;;;;;;;;;22.10;99.90;;;;;;5075135;28;19910;-74
2022/02/05 06:57:35;;;;;;;;;;;22.10;99.90;;;;;;5075390;28;19955;-74
2022/02/05 07:00:05;;;;;;;;;;;22.10;99.90;;;;;;5074776;28;19924;-74
2022/02/05 07:02:32;;;;;;;;;;;22.00;99.90;;;;;;5075261;28;20376;-74
2022/02/05 07:04:59;;;;;;;;;;;22.10;99.90;;;;;;5075190;28;19916;-74
2022/02/05 07:07:26;;;;;;;;;;;22.00;99.90;;;;;;5075213;28;20383;-74
2022/02/05 07:09:52;;;;;;;;;;;22.00;99.90;;;;;;5075062;28;19913;-74
2022/02/05 07:12:19;;;;;;;;;;;21.90;99.90;;;;;;5075254;28;19908;-74
2022/02/05 07:22:29;;;;;;;;;;;21.90;99.90;;;;;;5075521;28;20045;-74
2022/02/05 07:29:12;;;;;;;;;;;22.00;99.90;;;;;;5074787;28;19917;-74
2022/02/05 07:30:26;;;;;;;;;;;21.90;99.90;;;;;;5075029;28;19915;-74
2022/02/05 07:32:53;;;;;;;;;;;21.90;99.90;;;;;;5074869;28;19908;-74
2022/02/05 07:35:20;;;;;;;;;;;21.80;99.90;;;;;;5074779;28;19916;-74
2022/02/05 07:37:48;;;;;;;;;;;21.80;99.90;;;;;;5074329;28;20323;-74
2022/02/05 07:40:17;;;;;;;;;;;21.80;99.90;;;;;;5074509;28;20334;-74
2022/02/05 07:42:44;;;;;;;;;;;21.80;99.90;;;;;;5074468;28;20377;-74
2022/02/05 07:45:11;;;;;;;;;;;21.80;99.90;;;;;;5074591;28;20314;-74
2022/02/05 07:47:37;;;;;;;;;;;21.80;99.90;;;;;;5074283;28;19909;-74
2022/02/05 07:50:04;;;;;;;;;;;21.80;99.90;;;;;;5074220;28;19909;-74
2022/02/05 07:52:31;;;;;;;;;;;21.80;99.90;;;;;;5073177;28;19909;-74
2022/02/05 07:54:57;;;;;;;;;;;21.80;99.90;;;;;;5074311;28;19954;-74
2022/02/05 07:57:27;;;;;;;;;;;21.80;99.90;;;;;;5074187;28;19912;-74
2022/02/05 07:59:53;;;;;;;;;;;21.70;99.90;;;;;;5073701;28;19921;-74
2022/02/05 08:02:20;;;;;;;;;;;21.70;99.90;;;;;;5074340;28;19954;-74
2022/02/05 08:04:46;;;;;;;;;;;21.60;99.90;;;;;;5074036;28;19960;-74
2022/02/05 08:07:13;;;;;;;;;;;21.70;99.90;;;;;;5074070;28;19919;-74
2022/02/05 08:09:55;;;;;;;;;;;21.60;99.90;;;;;;5074102;28;19909;-74
2022/02/05 08:12:22;;;;;;;;;;;21.60;99.90;;;;;;5073850;28;19908;-74
2022/02/05 08:14:51;;;;;;;;;;;21.60;99.90;;;;;;5074073;28;19915;-74
2022/02/05 08:17:37;;;;;;;;;;;21.60;99.90;;;;;;5073908;28;20408;-74
2022/02/05 08:20:04;;;;;;;;;;;21.60;99.90;;;;;;5073758;28;20282;-74
2022/02/05 08:22:30;;;;;;;;;;;21.60;99.90;;;;;;5073803;28;20027;-74
2022/02/05 08:24:57;;;;;;;;;;;21.50;99.90;;;;;;5073079;28;19920;-74
2022/02/05 08:27:24;;;;;;;;;;;21.50;99.90;;;;;;5073071;28;19909;-74
2022/02/05 08:29:59;;;;;;;;;;;21.50;99.90;;;;;;5073262;28;19935;-74
2022/02/05 08:32:27;;;;;;;;;;;21.50;99.90;;;;;;5073452;28;20343;-74
2022/02/05 08:34:56;;;;;;;;;;;21.40;99.90;;;;;;5073421;28;19908;-74
2022/02/05 08:37:22;;;;;;;;;;;21.40;99.90;;;;;;5073039;28;19919;-74
2022/02/05 08:39:49;;;;;;;;;;;21.40;99.90;;;;;;5073218;28;19909;-74
2022/02/05 08:42:15;;;;;;;;;;;21.50;99.90;;;;;;5072771;28;19970;-74
2022/02/05 08:44:42;;;;;;;;;;;21.50;99.90;;;;;;5073060;28;20039;-73
2022/02/05 08:47:09;;;;;;;;;;;21.40;99.90;;;;;;5073467;28;20276;-73
2022/02/05 08:49:36;;;;;;;;;;;21.40;99.90;;;;;;5073375;28;20026;-73
2022/02/05 08:52:06;;;;;;;;;;;21.40;99.90;;;;;;5072842;28;20260;-74
2022/02/05 08:54:33;;;;;;;;;;;21.40;99.90;;;;;;5073098;28;20363;-74
2022/02/05 08:57:00;;;;;;;;;;;21.40;99.90;;;;;;5071983;28;19909;-73
2022/02/05 08:59:31;;;;;;;;;;;21.40;99.90;;;;;;5072752;28;19920;-74
2022/02/05 09:02:11;;;;;;;;;;;21.40;99.90;;;;;;5072859;28;19915;-73
2022/02/05 09:04:50;;;;;;;;;;;21.40;99.90;;;;;;5072587;28;19916;-74
2022/02/05 09:07:17;;;;;;;;;;;21.30;99.90;;;;;;5072938;28;19952;-74
2022/02/05 09:14:43;;;;;;;;;;;21.30;99.90;;;;;;5072693;28;19916;-73
2022/02/05 09:17:09;;;;;;;;;;;21.30;99.90;;;;;;5072597;28;20279;-73
2022/02/05 09:19:36;;;;;;;;;;;21.30;99.90;;;;;;5072713;28;19915;-73
2022/02/05 09:22:05;;;;;;;;;;;21.30;99.90;;;;;;5072295;28;19908;-74
2022/02/05 09:24:32;;;;;;;;;;;21.30;99.90;;;;;;5072664;28;20232;-73
2022/02/05 09:27:02;;;;;;;;;;;21.30;99.90;;;;;;5072039;28;20428;-74
2022/02/05 09:29:31;;;;;;;;;;;21.30;99.90;;;;;;5072621;28;19915;-74
2022/02/05 09:31:57;;;;;;;;;;;21.30;99.90;;;;;;5072307;28;19909;-74
2022/02/05 09:34:24;;;;;;;;;;;21.30;99.90;;;;;;5072359;28;19915;-74
2022/02/05 09:36:51;;;;;;;;;;;21.20;99.90;;;;;;5072486;28;19908;-74
2022/02/05 09:39:18;;;;;;;;;;;21.20;99.90;;;;;;5072698;28;19908;-74
2022/02/05 09:41:45;;;;;;;;;;;21.30;99.90;;;;;;5071777;28;19909;-74
2022/02/05 09:44:12;;;;;;;;;;;21.30;99.90;;;;;;5072249;28;20367;-73
2022/02/05 09:46:39;;;;;;;;;;;21.20;99.90;;;;;;5072274;28;19908;-74
2022/02/05 09:49:06;;;;;;;;;;;21.20;99.90;;;;;;5072334;28;19923;-74
2022/02/05 09:51:36;;;;;;;;;;;21.30;99.90;;;;;;5072365;28;19917;-74
2022/02/05 09:54:04;;;;;;;;;;;21.20;99.90;;;;;;5072047;28;19913;-73
2022/02/05 09:56:32;;;;;;;;;;;21.20;99.90;;;;;;5071836;28;19963;-74
2022/02/05 09:59:00;;;;;;;;;;;21.20;99.90;;;;;;5071925;28;20325;-74
2022/02/05 10:01:31;;;;;;;;;;;21.30;99.90;;;;;;5072282;28;20386;-74
2022/02/05 10:03:58;;;;;;;;;;;21.20;99.90;;;;;;5071915;28;19959;-73
2022/02/05 10:06:39;;;;;;;;;;;21.10;99.90;;;;;;5072212;28;19951;-73
2022/02/05 10:09:10;;;;;;;;;;;20.90;99.90;;;;;;5072056;28;20393;-73
2022/02/05 10:11:53;;;;;;;;;;;20.90;99.90;;;;;;5071337;28;19970;-73
2022/02/05 10:14:24;;;;;;;;;;;20.80;99.90;;;;;;5071895;28;19932;-73
2022/02/05 10:16:56;;;;;;;;;;;20.80;99.90;;;;;;5075488;28;19999;-74
2022/02/05 10:19:23;;;;;;;;;;;20.90;99.90;;;;;;5076248;28;19935;-73
2022/02/05 10:21:59;;;;;;;;;;;20.90;99.90;;;;;;5075809;28;20370;-74
2022/02/05 10:24:29;;;;;;;;;;;20.90;99.90;;;;;;5076268;28;20263;-73
2022/02/05 10:26:56;;;;;;;;;;;21.00;99.90;;;;;;5108129;28;19916;-74
2022/02/05 10:29:23;;;;;;;;;;;20.90;99.90;;;;;;5076096;28;19916;-73
2022/02/05 10:32:14;;;;;;;;;;;20.90;99.90;;;;;;5075583;28;20433;-74
2022/02/05 10:35:38;;;;;;;;;;;20.90;99.90;;;;;;5075757;28;19909;-74
2022/02/05 10:37:48;;;;;;;;;;;20.90;99.90;;;;;;5072640;28;19909;-74
2022/02/05 10:40:22;;;;;;;;;;;20.90;99.90;;;;;;5075012;28;19912;-73
2022/02/05 10:45:30;;;;;;;;;;;20.90;99.90;;;;;;5075566;28;19917;-73
2022/02/05 10:47:58;;;;;;;;;;;20.90;99.90;;;;;;5075371;28;19908;-73
2022/02/05 10:50:33;;;;;;;;;;;20.90;99.90;;;;;;5075631;28;19931;-73
2022/02/05 10:53:09;;;;;;;;;;;20.90;99.90;;;;;;5075614;28;20363;-73
2022/02/05 10:55:47;;;;;;;;;;;20.90;99.90;;;;;;5074497;28;19962;-73
2022/02/05 11:05:55;;;;;;;;;;;21.00;99.90;;;;;;5075503;28;20109;-73
2022/02/05 11:08:22;;;;;;;;;;;21.00;99.90;;;;;;5074990;28;20244;-73
2022/02/05 11:21:09;;;;;;;;;;;20.90;99.90;;;;;;5074846;28;19915;-73
2022/02/05 11:23:36;;;;;;;;;;;20.90;99.90;;;;;;5074742;28;19913;-73
2022/02/05 11:26:04;;;;;;;;;;;20.90;99.90;;;;;;5073824;28;19955;-73
2022/02/05 11:28:56;;;;;;;;;;;20.90;99.90;;;;;;5074703;28;19909;-73
2022/02/05 11:31:35;;;;;;;;;;;20.90;99.90;;;;;;5073615;28;19971;-73
2022/02/05 11:34:27;;;;;;;;;;;20.90;99.90;;;;;;5074574;28;19975;-73
2022/02/05 11:37:08;;;;;;;;;;;20.80;99.90;;;;;;5074696;28;20430;-73
2022/02/05 11:39:51;;;;;;;;;;;20.90;99.90;;;;;;5074043;28;19908;-73
2022/02/05 11:42:25;;;;;;;;;;;20.90;99.90;;;;;;5071935;28;19908;-73
2022/02/05 11:44:52;;;;;;;;;;;20.90;99.90;;;;;;5072520;28;19963;-73
2022/02/05 11:47:21;;;;;;;;;;;20.90;99.90;;;;;;5073062;28;19919;-73
2022/02/05 11:49:55;;;;;;;;;;;20.90;99.90;;;;;;5072010;28;19908;-73
2022/02/05 11:52:42;;;;;;;;;;;20.90;99.90;;;;;;5072394;28;20386;-73
2022/02/05 11:55:11;;;;;;;;;;;20.90;99.90;;;;;;5071601;28;19981;-73
2022/02/05 11:57:49;;;;;;;;;;;20.90;99.90;;;;;;5104466;28;19947;-73
2022/02/05 12:00:22;;;;;;;;;;;20.90;99.90;;;;;;5072066;28;20441;-73
2022/02/05 12:03:00;;;;;;;;;;;20.90;99.90;;;;;;5072005;28;19913;-73
2022/02/05 12:05:34;;;;;;;;;;;20.90;99.90;;;;;;5071964;28;19916;-73
2022/02/05 12:08:07;;;;;;;;;;;20.90;99.90;;;;;;5071615;28;20045;-73
2022/02/05 12:10:33;;;;;;;;;;;20.90;99.90;;;;;;5071427;28;19908;-73
2022/02/05 12:13:16;;;;;;;;;;;20.80;99.90;;;;;;5071674;28;19912;-73
2022/02/05 12:15:43;;;;;;;;;;;20.80;99.90;;;;;;5071899;28;20290;-73
2022/02/05 12:20:53;;;;;;;;;;;20.80;99.90;;;;;;5071556;28;19909;-73
2022/02/05 12:23:31;;;;;;;;;;;20.80;99.90;;;;;;5071779;28;19916;-73
2022/02/05 12:25:57;;;;;;;;;;;20.70;99.90;;;;;;5069584;28;20358;-73
2022/02/05 12:28:34;;;;;;;;;;;20.70;99.90;;;;;;5071751;28;19973;-73
2022/02/05 12:31:06;;;;;;;;;;;20.70;99.90;;;;;;5071788;28;20378;-74
2022/02/05 12:33:43;;;;;;;;;;;20.70;99.90;;;;;;5071104;28;20476;-74
2022/02/05 12:36:10;;;;;;;;;;;20.70;99.90;;;;;;5071494;28;20431;-74
2022/02/05 12:38:40;;;;;;;;;;;20.70;99.90;;;;;;5070537;28;19912;-74
2022/02/05 12:41:08;;;;;;;;;;;20.60;99.90;;;;;;5071122;28;20378;-74
2022/02/05 12:43:55;;;;;;;;;;;20.70;99.90;;;;;;5070944;28;19912;-74
2022/02/05 12:46:23;;;;;;;;;;;20.70;99.90;;;;;;5070863;28;19958;-74
2022/02/05 12:48:55;;;;;;;;;;;20.70;99.90;;;;;;5071193;28;19912;-74
2022/02/05 12:51:24;;;;;;;;;;;20.70;99.90;;;;;;5071370;28;19962;-74
2022/02/05 12:53:51;;;;;;;;;;;20.60;99.90;;;;;;5070702;28;19948;-74
2022/02/05 12:56:19;;;;;;;;;;;20.60;99.90;;;;;;5070782;28;19932;-74
2022/02/05 12:58:53;;;;;;;;;;;20.60;99.90;;;;;;5070272;28;19916;-74
2022/02/05 13:01:20;;;;;;;;;;;20.50;99.90;;;;;;5071076;28;19912;-74
2022/02/05 13:03:47;;;;;;;;;;;20.50;99.90;;;;;;5070598;28;20019;-74
2022/02/05 13:06:17;;;;;;;;;;;20.60;99.90;;;;;;5070893;28;19923;-74
2022/02/05 13:08:48;;;;;;;;;;;20.60;99.90;;;;;;5070400;28;19920;-73
2022/02/05 13:11:27;;;;;;;;;;;20.60;99.90;;;;;;5070568;28;19909;-74
2022/02/05 13:13:54;;;;;;;;;;;20.60;99.90;;;;;;5093646;28;19908;-74
2022/02/05 13:16:21;;;;;;;;;;;20.70;99.90;;;;;;5111344;28;19934;-74
2022/02/05 13:19:13;;;;;;;;;;;20.60;99.90;;;;;;5111247;28;19941;-74
2022/02/05 13:27:50;;;;;;;;;;;20.60;99.90;;;;;;5077934;28;19916;-74
2022/02/05 13:36:09;;;;;;;;;;;20.60;99.90;;;;;;5070790;28;19920;-74
2022/02/05 13:39:08;;;;;;;;;;;20.60;99.90;;;;;;5070191;28;19938;-76
2022/02/05 13:41:32;;;;;;;;;;;20.60;99.90;;;;;;5070256;28;20030;-74
2022/02/05 13:43:59;;;;;;;;;;;20.50;99.90;;;;;;5102905;28;20540;-74
2022/02/05 13:46:26;;;;;;;;;;;20.50;99.90;;;;;;5070466;28;20016;-74
2022/02/05 13:48:53;;;;;;;;;;;20.50;99.90;;;;;;5070298;28;19912;-74
2022/02/05 13:51:20;;;;;;;;;;;20.50;99.90;;;;;;5070565;28;19908;-73
2022/02/05 13:53:50;;;;;;;;;;;20.40;99.90;;;;;;5070178;28;20416;-74
2022/02/05 13:56:17;;;;;;;;;;;20.30;99.90;;;;;;5070181;28;19939;-74
2022/02/05 13:58:44;;;;;;;;;;;20.30;99.90;;;;;;5070281;28;19923;-74
2022/02/05 14:01:25;;;;;;;;;;;20.30;99.90;;;;;;5070198;28;19994;-74
2022/02/05 14:03:52;;;;;;;;;;;20.30;99.90;;;;;;5070059;28;19916;-74
2022/02/05 14:06:19;;;;;;;;;;;20.30;99.90;;;;;;5069940;28;19956;-74
2022/02/05 14:08:52;;;;;;;;;;;20.30;99.90;;;;;;5070280;28;20351;-74
2022/02/05 14:11:19;;;;;;;;;;;20.30;99.90;;;;;;5070140;28;19916;-74
2022/02/05 14:13:54;;;;;;;;;;;20.30;99.90;;;;;;5070009;28;19916;-74
2022/02/05 14:16:28;;;;;;;;;;;20.30;99.90;;;;;;5070239;28;19940;-73
2022/02/05 14:18:58;;;;;;;;;;;20.30;99.90;;;;;;5069894;28;19931;-74
2022/02/05 14:21:48;;;;;;;;;;;20.20;99.90;;;;;;5070162;28;20422;-74
2022/02/05 14:24:18;;;;;;;;;;;20.10;99.90;;;;;;5102418;28;19978;-74
2022/02/05 14:27:03;;;;;;;;;;;19.90;99.90;;;;;;5069945;28;19912;-74
2022/02/05 14:30:16;;;;;;;;;;;19.90;99.90;;;;;;5070121;28;19920;-74
2022/02/05 14:32:39;;;;;;;;;;;19.90;99.90;;;;;;5072638;28;19913;-74
2022/02/05 14:40:46;;;;;;;;;;;20.10;99.90;;;;;;5069841;28;19954;-74
2022/02/05 14:43:15;;;;;;;;;;;20.10;99.90;;;;;;5069931;28;19913;-74
2022/02/05 14:45:43;;;;;;;;;;;20.20;99.90;;;;;;5069841;28;20594;-74
2022/02/05 14:48:10;;;;;;;;;;;20.20;99.90;;;;;;5069815;28;19915;-74
2022/02/05 14:50:37;;;;;;;;;;;20.20;99.90;;;;;;5069893;28;19909;-74
2022/02/05 14:53:04;;;;;;;;;;;20.20;99.90;;;;;;5069703;28;20360;-74
2022/02/05 14:55:31;;;;;;;;;;;20.20;99.90;;;;;;5069549;28;20350;-74
2022/02/05 14:57:57;;;;;;;;;;;20.20;99.90;;;;;;5069204;28;20329;-73
2022/02/05 15:00:24;;;;;;;;;;;20.20;99.90;;;;;;5069758;28;19924;-74
2022/02/05 15:02:51;;;;;;;;;;;20.20;99.90;;;;;;5072685;28;20260;-74
2022/02/05 15:05:18;;;;;;;;;;;20.20;99.90;;;;;;5073323;28;20011;-74
2022/02/05 15:07:45;;;;;;;;;;;20.20;99.90;;;;;;5073307;28;19954;-74
2022/02/05 15:10:16;;;;;;;;;;;20.20;99.90;;;;;;5072808;28;19912;-73
2022/02/05 15:12:43;;;;;;;;;;;20.20;99.90;;;;;;5073270;28;19912;-73
2022/02/05 15:15:16;;;;;;;;;;;20.20;99.90;;;;;;5073090;28;19944;-72
2022/02/05 15:17:44;;;;;;;;;;;20.30;99.90;;;;;;5073202;28;19923;-72
2022/02/05 15:20:11;;;;;;;;;;;20.30;99.90;;;;;;5073047;28;19908;-73
2022/02/05 15:22:38;;;;;;;;;;;20.30;99.90;;;;;;5072980;28;19919;-72
2022/02/05 15:25:05;;;;;;;;;;;20.30;99.90;;;;;;5072481;28;19958;-73
2022/02/05 15:27:32;;;;;;;;;;;20.20;99.90;;;;;;5072954;28;19996;-72
2022/02/05 15:29:59;;;;;;;;;;;20.20;99.90;;;;;;5072631;28;20278;-72
2022/02/05 15:32:25;;;;;;;;;;;20.20;99.90;;;;;;5072855;28;20278;-72
2022/02/05 15:34:52;;;;;;;;;;;20.20;99.90;;;;;;5071401;28;19912;-72
2022/02/05 15:37:22;;;;;;;;;;;20.20;99.90;;;;;;5072567;28;19919;-72
2022/02/05 15:45:03;;;;;;;;;;;20.20;99.90;;;;;;5072431;28;19922;-72
2022/02/05 15:47:30;;;;;;;;;;;20.20;99.90;;;;;;5072532;28;19908;-73
2022/02/05 15:49:57;;;;;;;;;;;20.20;99.90;;;;;;5071895;28;19908;-72
2022/02/05 15:52:24;;;;;;;;;;;20.20;99.90;;;;;;5072411;28;19908;-73
2022/02/05 15:54:52;;;;;;;;;;;20.10;99.90;;;;;;5072433;28;19931;-73
2022/02/05 15:57:32;;;;;;;;;;;20.10;99.90;;;;;;5072329;28;19916;-73
2022/02/05 16:00:20;;;;;;;;;;;20.10;99.90;;;;;;5071746;28;19920;-72
2022/02/05 16:02:47;;;;;;;;;;;20.20;99.90;;;;;;5087559;28;19915;-73
2022/02/05 16:05:14;;;;;;;;;;;20.20;99.90;;;;;;5072120;28;20362;-72
2022/02/05 16:07:40;;;;;;;;;;;20.20;99.90;;;;;;5071992;28;19912;-73
2022/02/05 16:10:07;;;;;;;;;;;20.20;99.90;;;;;;5071817;28;19912;-72
2022/02/05 16:12:34;;;;;;;;;;;20.20;99.90;;;;;;5103731;28;19954;-72
2022/02/05 16:15:00;;;;;;;;;;;20.10;99.90;;;;;;5071664;28;19908;-73
2022/02/05 16:17:27;;;;;;;;;;;20.10;99.90;;;;;;5071839;28;19915;-73
2022/02/05 16:19:54;;;;;;;;;;;20.00;99.90;;;;;;5071727;28;20266;-73
2022/02/05 16:22:20;;;;;;;;;;;20.00;99.90;;;;;;5071907;28;20000;-73
2022/02/05 16:24:47;;;;;;;;;;;19.90;99.90;;;;;;5071637;28;20035;-73
2022/02/05 16:27:13;;;;;;;;;;;19.90;99.90;;;;;;5071634;28;19917;-73
2022/02/05 16:29:42;;;;;;;;;;;19.80;99.90;;;;;;5071349;28;20338;-73
2022/02/05 16:32:10;;;;;;;;;;;19.80;99.90;;;;;;5071410;28;19909;-73
2022/02/05 16:34:45;;;;;;;;;;;19.70;99.90;;;;;;5071538;28;19909;-73
2022/02/05 16:37:13;;;;;;;;;;;19.70;99.90;;;;;;5071565;28;19913;-73
2022/02/05 16:39:44;;;;;;;;;;;19.60;99.90;;;;;;5071335;28;19919;-73
2022/02/05 16:42:11;;;;;;;;;;;19.70;99.90;;;;;;5070929;28;20433;-73
2022/02/05 16:44:38;;;;;;;;;;;19.60;99.90;;;;;;5071345;28;20282;-73
2022/02/05 16:47:06;;;;;;;;;;;19.40;99.90;;;;;;5071383;28;19912;-73
2022/02/05 16:49:33;;;;;;;;;;;19.10;99.90;;;;;;5071523;28;19919;-73
2022/02/05 16:52:00;;;;;;;;;;;18.90;99.90;;;;;;5070952;28;19909;-74
2022/02/05 16:54:27;;;;;;;;;;;18.70;99.90;;;;;;5070902;28;19912;-74
2022/02/05 16:56:54;;;;;;;;;;;18.50;99.90;;;;;;5071061;28;20412;-74
2022/02/05 16:59:21;;;;;;;;;;;18.40;99.90;;;;;;5070856;28;19951;-75
2022/02/05 17:01:48;;;;;;;;;;;18.30;99.90;;;;;;5070817;28;19913;-75
2022/02/05 17:04:15;;;;;;;;;;;18.30;99.90;;;;;;5070954;28;19917;-74
2022/02/05 17:06:42;;;;;;;;;;;18.30;99.90;;;;;;5070750;28;19909;-74
2022/02/05 17:09:11;;;;;;;;;;;18.40;99.90;;;;;;5070711;28;20253;-74
2022/02/05 17:11:37;;;;;;;;;;;18.40;99.90;;;;;;5071004;28;20355;-75
2022/02/05 17:14:04;;;;;;;;;;;18.40;99.90;;;;;;5070756;28;20003;-75
2022/02/05 17:16:32;;;;;;;;;;;18.40;99.90;;;;;;5070810;28;19915;-75
2022/02/05 17:18:59;;;;;;;;;;;18.40;99.90;;;;;;5070856;28;19912;-75
2022/02/05 17:21:26;;;;;;;;;;;18.50;99.90;;;;;;5071295;28;19912;-75
2022/02/05 17:23:53;;;;;;;;;;;18.50;99.90;;;;;;5072188;28;19979;-74
2022/02/05 17:26:21;;;;;;;;;;;18.60;99.90;;;;;;5072581;28;19946;-75
2022/02/05 17:28:48;;;;;;;;;;;18.60;99.90;;;;;;5072818;28;19908;-75
2022/02/05 17:31:16;;;;;;;;;;;18.60;99.90;;;;;;5072708;28;19987;-75
2022/02/05 17:33:43;;;;;;;;;;;18.60;99.90;;;;;;5072825;28;19916;-75
2022/02/05 17:36:16;;;;;;;;;;;18.50;99.90;;;;;;5072547;28;19962;-75
2022/02/05 17:38:43;;;;;;;;;;;18.60;99.90;;;;;;5072951;28;19919;-75
2022/02/05 17:41:09;;;;;;;;;;;18.80;99.90;;;;;;5072622;28;20327;-74
2022/02/05 17:43:36;;;;;;;;;;;18.70;99.90;;;;;;5072486;28;19918;-74